sensor_id;sensor_type;location;lat;lon;timestamp;P1;durP1;ratioP1;P2;durP2;ratioP2
13244;SDS011;6689;53.400;12.486;2022-12-18T00:00:04;36.25;;;15.60;;
13244;SDS011;6689;53.400;12.486;2022-12-18T00:02:33;32.35;;;14.85;;
13244;SDS011;6689;53.400;12.486;2022-12-18T00:05:00;39.13;;;13.80;;
13244;SDS011;6689;53.400;12.486;2022-12-18T00:07:28;35.15;;;14.90;;
13244;SDS011;6689;53.400;12.486;2022-12-18T00:09:55;37.65;;;15.82;;
13244;SDS011;6689;53.400;12.486;2022-12-18T00:12:22;35.47;;;15.90;;
13244;SDS011;6689;53.400;12.486;2022-12-18T00:14:49;31.00;;;14.00;;
13244;SDS011;6689;53.400;12.486;2022-12-18T00:17:17;33.10;;;13.75;;
13244;SDS011;6689;53.400;12.486;2022-12-18T00:19:47;31.88;;;14.68;;
13244;SDS011;6689;53.400;12.486;2022-12-18T00:22:14;32.03;;;12.85;;
13244;SDS011;6689;53.400;12.486;2022-12-18T00:24:42;29.83;;;12.95;;
13244;SDS011;6689;53.400;12.486;2022-12-18T00:27:09;30.63;;;12.25;;
13244;SDS011;6689;53.400;12.486;2022-12-18T00:29:36;32.13;;;13.40;;
13244;SDS011;6689;53.400;12.486;2022-12-18T00:32:04;34.13;;;13.98;;
13244;SDS011;6689;53.400;12.486;2022-12-18T00:34:31;34.35;;;14.32;;
13244;SDS011;6689;53.400;12.486;2022-12-18T00:36:58;31.50;;;14.13;;
13244;SDS011;6689;53.400;12.486;2022-12-18T00:39:25;36.10;;;14.93;;
13244;SDS011;6689;53.400;12.486;2022-12-18T00:41:54;31.27;;;14.55;;
13244;SDS011;6689;53.400;12.486;2022-12-18T00:44:38;32.55;;;14.43;;
13244;SDS011;6689;53.400;12.486;2022-12-18T00:47:06;31.35;;;13.65;;
13244;SDS011;6689;53.400;12.486;2022-12-18T00:49:33;42.63;;;14.27;;
13244;SDS011;6689;53.400;12.486;2022-12-18T00:52:00;32.90;;;13.38;;
13244;SDS011;6689;53.400;12.486;2022-12-18T00:54:27;31.35;;;12.77;;
13244;SDS011;6689;53.400;12.486;2022-12-18T00:56:56;35.88;;;13.50;;
13244;SDS011;6689;53.400;12.486;2022-12-18T00:59:23;28.05;;;13.18;;
13244;SDS011;6689;53.400;12.486;2022-12-18T01:01:50;28.05;;;12.25;;
13244;SDS011;6689;53.400;12.486;2022-12-18T01:04:18;33.13;;;13.30;;
13244;SDS011;6689;53.400;12.486;2022-12-18T01:06:45;31.73;;;13.85;;
13244;SDS011;6689;53.400;12.486;2022-12-18T01:09:15;28.58;;;13.65;;
13244;SDS011;6689;53.400;12.486;2022-12-18T01:11:42;28.00;;;13.30;;
13244;SDS011;6689;53.400;12.486;2022-12-18T01:14:11;28.88;;;13.70;;
13244;SDS011;6689;53.400;12.486;2022-12-18T01:16:38;28.40;;;13.57;;
13244;SDS011;6689;53.400;12.486;2022-12-18T01:19:05;27.52;;;12.65;;
13244;SDS011;6689;53.400;12.486;2022-12-18T01:21:33;30.35;;;12.93;;
13244;SDS011;6689;53.400;12.486;2022-12-18T01:24:00;33.95;;;14.30;;
13244;SDS011;6689;53.400;12.486;2022-12-18T01:26:27;26.63;;;13.15;;
13244;SDS011;6689;53.400;12.486;2022-12-18T01:28:55;28.35;;;13.13;;
13244;SDS011;6689;53.400;12.486;2022-12-18T01:31:25;28.45;;;12.70;;
13244;SDS011;6689;53.400;12.486;2022-12-18T01:33:54;27.88;;;13.80;;
13244;SDS011;6689;53.400;12.486;2022-12-18T01:36:22;28.20;;;13.63;;
13244;SDS011;6689;53.400;12.486;2022-12-18T01:38:51;27.73;;;12.43;;
13244;SDS011;6689;53.400;12.486;2022-12-18T01:41:21;28.90;;;13.00;;
13244;SDS011;6689;53.400;12.486;2022-12-18T01:43:50;30.35;;;13.27;;
13244;SDS011;6689;53.400;12.486;2022-12-18T01:46:19;26.80;;;12.00;;
13244;SDS011;6689;53.400;12.486;2022-12-18T01:48:50;25.63;;;12.90;;
13244;SDS011;6689;53.400;12.486;2022-12-18T01:51:19;24.98;;;12.40;;
13244;SDS011;6689;53.400;12.486;2022-12-18T01:53:47;25.80;;;12.48;;
13244;SDS011;6689;53.400;12.486;2022-12-18T01:56:16;23.27;;;12.68;;
13244;SDS011;6689;53.400;12.486;2022-12-18T01:58:47;31.52;;;15.88;;
13244;SDS011;6689;53.400;12.486;2022-12-18T02:01:20;30.73;;;15.45;;
13244;SDS011;6689;53.400;12.486;2022-12-18T02:03:47;30.98;;;13.88;;
13244;SDS011;6689;53.400;12.486;2022-12-18T02:06:18;30.42;;;13.32;;
13244;SDS011;6689;53.400;12.486;2022-12-18T02:08:52;34.10;;;14.93;;
13244;SDS011;6689;53.400;12.486;2022-12-18T02:11:32;30.30;;;13.10;;
13244;SDS011;6689;53.400;12.486;2022-12-18T02:14:12;28.30;;;13.65;;
13244;SDS011;6689;53.400;12.486;2022-12-18T02:16:50;38.17;;;14.10;;
13244;SDS011;6689;53.400;12.486;2022-12-18T02:19:32;32.08;;;13.57;;
13244;SDS011;6689;53.400;12.486;2022-12-18T02:22:14;28.58;;;13.07;;
13244;SDS011;6689;53.400;12.486;2022-12-18T02:24:54;33.53;;;13.68;;
13244;SDS011;6689;53.400;12.486;2022-12-18T02:27:28;27.98;;;13.45;;
13244;SDS011;6689;53.400;12.486;2022-12-18T02:29:59;26.50;;;12.15;;
13244;SDS011;6689;53.400;12.486;2022-12-18T02:32:28;24.92;;;12.35;;
13244;SDS011;6689;53.400;12.486;2022-12-18T02:34:59;27.15;;;12.43;;
13244;SDS011;6689;53.400;12.486;2022-12-18T02:37:28;29.67;;;12.98;;
13244;SDS011;6689;53.400;12.486;2022-12-18T02:39:57;27.80;;;11.73;;
13244;SDS011;6689;53.400;12.486;2022-12-18T02:42:26;24.70;;;12.07;;
13244;SDS011;6689;53.400;12.486;2022-12-18T02:44:59;26.80;;;12.63;;
13244;SDS011;6689;53.400;12.486;2022-12-18T02:47:28;26.98;;;12.60;;
13244;SDS011;6689;53.400;12.486;2022-12-18T02:50:00;24.20;;;11.60;;
13244;SDS011;6689;53.400;12.486;2022-12-18T02:55:08;24.45;;;10.75;;
13244;SDS011;6689;53.400;12.486;2022-12-18T02:57:48;28.30;;;12.48;;
13244;SDS011;6689;53.400;12.486;2022-12-18T03:00:21;27.67;;;13.48;;
13244;SDS011;6689;53.400;12.486;2022-12-18T03:02:57;28.30;;;13.95;;
13244;SDS011;6689;53.400;12.486;2022-12-18T03:05:30;26.10;;;13.13;;
13244;SDS011;6689;53.400;12.486;2022-12-18T03:08:03;28.35;;;12.40;;
13244;SDS011;6689;53.400;12.486;2022-12-18T03:10:34;23.45;;;11.75;;
13244;SDS011;6689;53.400;12.486;2022-12-18T03:13:09;25.08;;;11.88;;
13244;SDS011;6689;53.400;12.486;2022-12-18T03:15:41;20.73;;;10.73;;
13244;SDS011;6689;53.400;12.486;2022-12-18T03:18:12;23.70;;;11.40;;
13244;SDS011;6689;53.400;12.486;2022-12-18T03:20:44;28.17;;;13.00;;
13244;SDS011;6689;53.400;12.486;2022-12-18T03:23:14;23.73;;;11.38;;
13244;SDS011;6689;53.400;12.486;2022-12-18T03:28:35;23.48;;;11.55;;
13244;SDS011;6689;53.400;12.486;2022-12-18T03:31:06;24.85;;;11.10;;
13244;SDS011;6689;53.400;12.486;2022-12-18T03:33:37;25.48;;;12.60;;
13244;SDS011;6689;53.400;12.486;2022-12-18T03:36:07;25.85;;;13.00;;
13244;SDS011;6689;53.400;12.486;2022-12-18T03:38:35;29.20;;;13.00;;
13244;SDS011;6689;53.400;12.486;2022-12-18T03:41:03;24.67;;;11.10;;
13244;SDS011;6689;53.400;12.486;2022-12-18T03:43:41;25.65;;;12.50;;
13244;SDS011;6689;53.400;12.486;2022-12-18T03:46:15;24.63;;;11.85;;
13244;SDS011;6689;53.400;12.486;2022-12-18T03:48:51;25.30;;;12.18;;
13244;SDS011;6689;53.400;12.486;2022-12-18T03:51:26;27.00;;;11.30;;
13244;SDS011;6689;53.400;12.486;2022-12-18T03:53:58;25.33;;;12.27;;
13244;SDS011;6689;53.400;12.486;2022-12-18T03:56:28;25.35;;;12.32;;
13244;SDS011;6689;53.400;12.486;2022-12-18T03:58:59;24.67;;;12.80;;
13244;SDS011;6689;53.400;12.486;2022-12-18T04:01:30;26.02;;;11.90;;
13244;SDS011;6689;53.400;12.486;2022-12-18T04:04:00;24.70;;;13.40;;
13244;SDS011;6689;53.400;12.486;2022-12-18T04:06:29;26.23;;;13.48;;
13244;SDS011;6689;53.400;12.486;2022-12-18T04:08:57;26.80;;;13.50;;
13244;SDS011;6689;53.400;12.486;2022-12-18T04:11:25;30.52;;;12.10;;
13244;SDS011;6689;53.400;12.486;2022-12-18T04:13:56;30.40;;;13.18;;
13244;SDS011;6689;53.400;12.486;2022-12-18T04:16:25;27.73;;;13.88;;
13244;SDS011;6689;53.400;12.486;2022-12-18T04:18:52;27.48;;;13.68;;
13244;SDS011;6689;53.400;12.486;2022-12-18T04:21:20;29.27;;;13.30;;
13244;SDS011;6689;53.400;12.486;2022-12-18T04:23:47;23.77;;;12.63;;
13244;SDS011;6689;53.400;12.486;2022-12-18T04:26:15;30.20;;;14.40;;
13244;SDS011;6689;53.400;12.486;2022-12-18T04:28:42;28.73;;;13.40;;
13244;SDS011;6689;53.400;12.486;2022-12-18T04:31:09;27.42;;;11.80;;
13244;SDS011;6689;53.400;12.486;2022-12-18T04:33:38;28.83;;;13.10;;
13244;SDS011;6689;53.400;12.486;2022-12-18T04:36:06;27.88;;;12.73;;
13244;SDS011;6689;53.400;12.486;2022-12-18T04:38:33;33.28;;;13.23;;
13244;SDS011;6689;53.400;12.486;2022-12-18T04:41:00;34.15;;;13.48;;
13244;SDS011;6689;53.400;12.486;2022-12-18T04:43:27;32.88;;;14.82;;
13244;SDS011;6689;53.400;12.486;2022-12-18T04:46:00;29.95;;;13.23;;
13244;SDS011;6689;53.400;12.486;2022-12-18T04:48:28;28.55;;;13.25;;
13244;SDS011;6689;53.400;12.486;2022-12-18T04:50:57;26.33;;;12.15;;
13244;SDS011;6689;53.400;12.486;2022-12-18T04:53:24;25.08;;;12.48;;
13244;SDS011;6689;53.400;12.486;2022-12-18T04:56:01;27.58;;;13.30;;
13244;SDS011;6689;53.400;12.486;2022-12-18T04:58:29;28.30;;;12.07;;
13244;SDS011;6689;53.400;12.486;2022-12-18T05:00:56;25.50;;;12.45;;
13244;SDS011;6689;53.400;12.486;2022-12-18T05:03:23;26.27;;;13.70;;
13244;SDS011;6689;53.400;12.486;2022-12-18T05:05:50;28.63;;;14.18;;
13244;SDS011;6689;53.400;12.486;2022-12-18T05:08:19;25.88;;;12.65;;
13244;SDS011;6689;53.400;12.486;2022-12-18T05:10:46;30.25;;;14.15;;
13244;SDS011;6689;53.400;12.486;2022-12-18T05:13:13;29.38;;;13.40;;
13244;SDS011;6689;53.400;12.486;2022-12-18T05:15:40;31.58;;;13.15;;
13244;SDS011;6689;53.400;12.486;2022-12-18T05:18:08;29.17;;;14.85;;
13244;SDS011;6689;53.400;12.486;2022-12-18T05:20:39;26.13;;;11.85;;
13244;SDS011;6689;53.400;12.486;2022-12-18T05:23:06;27.67;;;14.15;;
13244;SDS011;6689;53.400;12.486;2022-12-18T05:25:35;32.53;;;13.63;;
13244;SDS011;6689;53.400;12.486;2022-12-18T05:28:02;31.20;;;14.25;;
13244;SDS011;6689;53.400;12.486;2022-12-18T05:30:30;30.35;;;12.68;;
13244;SDS011;6689;53.400;12.486;2022-12-18T05:32:57;28.10;;;12.77;;
13244;SDS011;6689;53.400;12.486;2022-12-18T05:35:24;30.45;;;14.82;;
13244;SDS011;6689;53.400;12.486;2022-12-18T05:37:51;35.08;;;15.48;;
13244;SDS011;6689;53.400;12.486;2022-12-18T05:40:18;32.13;;;13.75;;
13244;SDS011;6689;53.400;12.486;2022-12-18T05:42:47;38.78;;;15.05;;
13244;SDS011;6689;53.400;12.486;2022-12-18T05:45:14;30.08;;;14.75;;
13244;SDS011;6689;53.400;12.486;2022-12-18T05:47:42;28.10;;;13.07;;
13244;SDS011;6689;53.400;12.486;2022-12-18T05:50:09;33.60;;;14.38;;
13244;SDS011;6689;53.400;12.486;2022-12-18T05:52:36;28.42;;;12.18;;
13244;SDS011;6689;53.400;12.486;2022-12-18T05:55:03;27.77;;;12.52;;
13244;SDS011;6689;53.400;12.486;2022-12-18T05:57:31;38.25;;;14.65;;
13244;SDS011;6689;53.400;12.486;2022-12-18T05:59:59;35.50;;;14.63;;
13244;SDS011;6689;53.400;12.486;2022-12-18T06:02:26;33.45;;;14.25;;
13244;SDS011;6689;53.400;12.486;2022-12-18T06:04:53;30.63;;;12.18;;
13244;SDS011;6689;53.400;12.486;2022-12-18T06:07:21;31.17;;;15.52;;
13244;SDS011;6689;53.400;12.486;2022-12-18T06:09:48;30.27;;;14.48;;
13244;SDS011;6689;53.400;12.486;2022-12-18T06:12:15;35.28;;;16.35;;
13244;SDS011;6689;53.400;12.486;2022-12-18T06:14:42;36.42;;;16.38;;
13244;SDS011;6689;53.400;12.486;2022-12-18T06:17:12;34.70;;;15.25;;
13244;SDS011;6689;53.400;12.486;2022-12-18T06:19:39;31.00;;;13.95;;
13244;SDS011;6689;53.400;12.486;2022-12-18T06:22:07;33.00;;;14.57;;
13244;SDS011;6689;53.400;12.486;2022-12-18T06:24:34;36.80;;;15.23;;
13244;SDS011;6689;53.400;12.486;2022-12-18T06:27:01;43.05;;;15.82;;
13244;SDS011;6689;53.400;12.486;2022-12-18T06:29:28;35.38;;;15.60;;
13244;SDS011;6689;53.400;12.486;2022-12-18T06:31:55;33.53;;;15.30;;
13244;SDS011;6689;53.400;12.486;2022-12-18T06:34:24;36.38;;;15.88;;
13244;SDS011;6689;53.400;12.486;2022-12-18T06:36:51;44.58;;;16.23;;
13244;SDS011;6689;53.400;12.486;2022-12-18T06:39:18;37.67;;;16.63;;
13244;SDS011;6689;53.400;12.486;2022-12-18T06:41:46;37.25;;;16.70;;
13244;SDS011;6689;53.400;12.486;2022-12-18T06:44:13;41.03;;;17.38;;
13244;SDS011;6689;53.400;12.486;2022-12-18T06:46:40;39.22;;;16.08;;
13244;SDS011;6689;53.400;12.486;2022-12-18T06:49:07;37.72;;;16.73;;
13244;SDS011;6689;53.400;12.486;2022-12-18T06:51:36;38.67;;;17.70;;
13244;SDS011;6689;53.400;12.486;2022-12-18T06:54:04;38.38;;;17.45;;
13244;SDS011;6689;53.400;12.486;2022-12-18T06:56:31;41.05;;;16.05;;
13244;SDS011;6689;53.400;12.486;2022-12-18T06:58:58;40.83;;;17.65;;
13244;SDS011;6689;53.400;12.486;2022-12-18T07:01:25;39.25;;;16.60;;
13244;SDS011;6689;53.400;12.486;2022-12-18T07:03:53;38.85;;;16.20;;
13244;SDS011;6689;53.400;12.486;2022-12-18T07:06:21;36.13;;;17.05;;
13244;SDS011;6689;53.400;12.486;2022-12-18T07:08:52;43.30;;;16.60;;
13244;SDS011;6689;53.400;12.486;2022-12-18T07:11:20;40.85;;;17.52;;
13244;SDS011;6689;53.400;12.486;2022-12-18T07:13:48;40.60;;;17.50;;
13244;SDS011;6689;53.400;12.486;2022-12-18T07:16:15;40.33;;;17.58;;
13244;SDS011;6689;53.400;12.486;2022-12-18T07:18:44;40.40;;;16.52;;
13244;SDS011;6689;53.400;12.486;2022-12-18T07:21:12;37.33;;;17.33;;
13244;SDS011;6689;53.400;12.486;2022-12-18T07:23:40;40.88;;;16.90;;
13244;SDS011;6689;53.400;12.486;2022-12-18T07:26:10;51.50;;;20.10;;
13244;SDS011;6689;53.400;12.486;2022-12-18T07:28:40;44.47;;;18.73;;
13244;SDS011;6689;53.400;12.486;2022-12-18T07:31:09;33.35;;;15.82;;
13244;SDS011;6689;53.400;12.486;2022-12-18T07:33:38;34.83;;;16.40;;
13244;SDS011;6689;53.400;12.486;2022-12-18T07:36:06;43.05;;;17.58;;
13244;SDS011;6689;53.400;12.486;2022-12-18T07:38:34;39.97;;;15.00;;
13244;SDS011;6689;53.400;12.486;2022-12-18T07:41:02;38.58;;;16.00;;
13244;SDS011;6689;53.400;12.486;2022-12-18T07:43:32;44.22;;;20.00;;
13244;SDS011;6689;53.400;12.486;2022-12-18T07:46:00;46.78;;;21.05;;
13244;SDS011;6689;53.400;12.486;2022-12-18T07:48:27;47.60;;;19.30;;
13244;SDS011;6689;53.400;12.486;2022-12-18T07:50:57;44.42;;;16.85;;
13244;SDS011;6689;53.400;12.486;2022-12-18T07:53:26;40.55;;;17.25;;
13244;SDS011;6689;53.400;12.486;2022-12-18T07:55:55;43.88;;;16.90;;
13244;SDS011;6689;53.400;12.486;2022-12-18T07:58:23;35.53;;;13.25;;
13244;SDS011;6689;53.400;12.486;2022-12-18T08:00:51;36.63;;;14.27;;
13244;SDS011;6689;53.400;12.486;2022-12-18T08:03:19;45.03;;;17.10;;
13244;SDS011;6689;53.400;12.486;2022-12-18T08:05:46;37.03;;;15.82;;
13244;SDS011;6689;53.400;12.486;2022-12-18T08:08:13;36.33;;;15.95;;
13244;SDS011;6689;53.400;12.486;2022-12-18T08:10:40;42.65;;;18.00;;
13244;SDS011;6689;53.400;12.486;2022-12-18T08:13:08;44.90;;;16.45;;
13244;SDS011;6689;53.400;12.486;2022-12-18T08:15:35;44.40;;;18.80;;
13244;SDS011;6689;53.400;12.486;2022-12-18T08:18:04;39.55;;;16.83;;
13244;SDS011;6689;53.400;12.486;2022-12-18T08:20:31;46.90;;;17.65;;
13244;SDS011;6689;53.400;12.486;2022-12-18T08:22:58;46.72;;;19.35;;
13244;SDS011;6689;53.400;12.486;2022-12-18T08:25:25;38.80;;;17.02;;
13244;SDS011;6689;53.400;12.486;2022-12-18T08:27:52;49.83;;;19.50;;
13244;SDS011;6689;53.400;12.486;2022-12-18T08:30:21;43.78;;;19.23;;
13244;SDS011;6689;53.400;12.486;2022-12-18T08:32:50;42.95;;;16.50;;
13244;SDS011;6689;53.400;12.486;2022-12-18T08:35:20;39.00;;;16.60;;
13244;SDS011;6689;53.400;12.486;2022-12-18T08:37:47;46.97;;;16.75;;
13244;SDS011;6689;53.400;12.486;2022-12-18T08:40:14;41.75;;;16.08;;
13244;SDS011;6689;53.400;12.486;2022-12-18T08:42:42;40.15;;;14.85;;
13244;SDS011;6689;53.400;12.486;2022-12-18T08:45:27;37.22;;;15.40;;
13244;SDS011;6689;53.400;12.486;2022-12-18T08:47:54;45.60;;;17.10;;
13244;SDS011;6689;53.400;12.486;2022-12-18T08:50:23;40.97;;;15.70;;
13244;SDS011;6689;53.400;12.486;2022-12-18T08:52:50;45.08;;;16.63;;
13244;SDS011;6689;53.400;12.486;2022-12-18T08:55:18;41.53;;;15.57;;
13244;SDS011;6689;53.400;12.486;2022-12-18T08:57:47;43.85;;;16.75;;
13244;SDS011;6689;53.400;12.486;2022-12-18T09:00:15;40.58;;;15.93;;
13244;SDS011;6689;53.400;12.486;2022-12-18T09:02:43;38.53;;;16.30;;
13244;SDS011;6689;53.400;12.486;2022-12-18T09:05:10;35.00;;;15.18;;
13244;SDS011;6689;53.400;12.486;2022-12-18T09:07:39;43.20;;;17.23;;
13244;SDS011;6689;53.400;12.486;2022-12-18T09:10:06;42.92;;;14.98;;
13244;SDS011;6689;53.400;12.486;2022-12-18T09:12:34;43.55;;;18.67;;
13244;SDS011;6689;53.400;12.486;2022-12-18T09:15:01;42.83;;;15.60;;
13244;SDS011;6689;53.400;12.486;2022-12-18T09:17:29;30.27;;;12.88;;
13244;SDS011;6689;53.400;12.486;2022-12-18T09:19:56;44.35;;;16.40;;
13244;SDS011;6689;53.400;12.486;2022-12-18T09:22:23;48.05;;;18.10;;
13244;SDS011;6689;53.400;12.486;2022-12-18T09:24:52;37.63;;;17.48;;
13244;SDS011;6689;53.400;12.486;2022-12-18T09:27:19;45.58;;;17.45;;
13244;SDS011;6689;53.400;12.486;2022-12-18T09:29:46;44.60;;;17.98;;
13244;SDS011;6689;53.400;12.486;2022-12-18T09:32:13;43.90;;;17.25;;
13244;SDS011;6689;53.400;12.486;2022-12-18T09:34:41;43.28;;;19.75;;
13244;SDS011;6689;53.400;12.486;2022-12-18T09:37:08;45.20;;;18.55;;
13244;SDS011;6689;53.400;12.486;2022-12-18T09:39:35;45.13;;;19.30;;
13244;SDS011;6689;53.400;12.486;2022-12-18T09:42:04;44.92;;;18.20;;
13244;SDS011;6689;53.400;12.486;2022-12-18T09:44:32;47.35;;;17.40;;
13244;SDS011;6689;53.400;12.486;2022-12-18T09:47:06;41.33;;;16.08;;
13244;SDS011;6689;53.400;12.486;2022-12-18T09:49:39;49.00;;;16.38;;
13244;SDS011;6689;53.400;12.486;2022-12-18T09:52:09;40.58;;;16.77;;
13244;SDS011;6689;53.400;12.486;2022-12-18T09:54:42;44.40;;;17.42;;
13244;SDS011;6689;53.400;12.486;2022-12-18T09:57:15;49.28;;;21.30;;
13244;SDS011;6689;53.400;12.486;2022-12-18T09:59:46;45.03;;;17.80;;
13244;SDS011;6689;53.400;12.486;2022-12-18T10:02:19;47.97;;;20.30;;
13244;SDS011;6689;53.400;12.486;2022-12-18T10:04:50;46.50;;;19.70;;
13244;SDS011;6689;53.400;12.486;2022-12-18T10:07:29;42.45;;;17.10;;
13244;SDS011;6689;53.400;12.486;2022-12-18T10:10:14;44.80;;;17.00;;
13244;SDS011;6689;53.400;12.486;2022-12-18T10:12:56;40.13;;;16.63;;
13244;SDS011;6689;53.400;12.486;2022-12-18T10:15:33;42.55;;;18.10;;
13244;SDS011;6689;53.400;12.486;2022-12-18T10:18:10;45.38;;;18.27;;
13244;SDS011;6689;53.400;12.486;2022-12-18T10:20:48;45.05;;;19.95;;
13244;SDS011;6689;53.400;12.486;2022-12-18T10:23:18;46.08;;;19.48;;
13244;SDS011;6689;53.400;12.486;2022-12-18T10:25:54;48.30;;;18.63;;
13244;SDS011;6689;53.400;12.486;2022-12-18T10:28:27;44.60;;;18.67;;
13244;SDS011;6689;53.400;12.486;2022-12-18T10:30:59;44.15;;;16.80;;
13244;SDS011;6689;53.400;12.486;2022-12-18T10:33:28;40.80;;;16.88;;
13244;SDS011;6689;53.400;12.486;2022-12-18T10:35:59;40.20;;;17.05;;
13244;SDS011;6689;53.400;12.486;2022-12-18T10:38:28;42.45;;;18.25;;
13244;SDS011;6689;53.400;12.486;2022-12-18T10:40:58;42.10;;;16.35;;
13244;SDS011;6689;53.400;12.486;2022-12-18T10:43:28;47.42;;;17.33;;
13244;SDS011;6689;53.400;12.486;2022-12-18T10:48:51;40.63;;;17.00;;
13244;SDS011;6689;53.400;12.486;2022-12-18T10:51:25;42.95;;;17.08;;
13244;SDS011;6689;53.400;12.486;2022-12-18T10:53:55;38.70;;;16.25;;
13244;SDS011;6689;53.400;12.486;2022-12-18T10:56:24;37.97;;;15.80;;
13244;SDS011;6689;53.400;12.486;2022-12-18T10:59:00;45.20;;;16.88;;
13244;SDS011;6689;53.400;12.486;2022-12-18T11:01:31;38.72;;;16.20;;
13244;SDS011;6689;53.400;12.486;2022-12-18T11:04:16;42.25;;;16.40;;
13244;SDS011;6689;53.400;12.486;2022-12-18T11:06:55;37.60;;;16.30;;
13244;SDS011;6689;53.400;12.486;2022-12-18T11:09:24;43.90;;;18.60;;
13244;SDS011;6689;53.400;12.486;2022-12-18T11:11:53;42.50;;;17.98;;
13244;SDS011;6689;53.400;12.486;2022-12-18T11:14:24;39.30;;;15.63;;
13244;SDS011;6689;53.400;12.486;2022-12-18T11:16:54;41.03;;;17.42;;
13244;SDS011;6689;53.400;12.486;2022-12-18T11:19:28;36.42;;;17.25;;
13244;SDS011;6689;53.400;12.486;2022-12-18T11:21:59;35.15;;;15.93;;
13244;SDS011;6689;53.400;12.486;2022-12-18T11:24:28;35.20;;;15.45;;
13244;SDS011;6689;53.400;12.486;2022-12-18T11:26:57;36.28;;;16.38;;
13244;SDS011;6689;53.400;12.486;2022-12-18T11:29:31;43.72;;;17.80;;
13244;SDS011;6689;53.400;12.486;2022-12-18T11:35:01;38.97;;;17.85;;
13244;SDS011;6689;53.400;12.486;2022-12-18T11:37:33;43.35;;;18.17;;
13244;SDS011;6689;53.400;12.486;2022-12-18T11:40:06;41.22;;;18.83;;
13244;SDS011;6689;53.400;12.486;2022-12-18T11:42:42;36.40;;;17.17;;
13244;SDS011;6689;53.400;12.486;2022-12-18T11:48:08;34.20;;;15.48;;
13244;SDS011;6689;53.400;12.486;2022-12-18T11:50:43;38.85;;;15.48;;
13244;SDS011;6689;53.400;12.486;2022-12-18T11:53:15;42.85;;;16.23;;
13244;SDS011;6689;53.400;12.486;2022-12-18T11:55:44;39.13;;;16.25;;
13244;SDS011;6689;53.400;12.486;2022-12-18T11:58:19;31.58;;;15.55;;
13244;SDS011;6689;53.400;12.486;2022-12-18T12:01:00;36.80;;;15.68;;
13244;SDS011;6689;53.400;12.486;2022-12-18T12:03:47;42.28;;;17.33;;
13244;SDS011;6689;53.400;12.486;2022-12-18T12:06:29;42.35;;;16.58;;
13244;SDS011;6689;53.400;12.486;2022-12-18T12:09:07;35.05;;;15.77;;
13244;SDS011;6689;53.400;12.486;2022-12-18T12:11:44;37.45;;;15.20;;
13244;SDS011;6689;53.400;12.486;2022-12-18T12:14:23;34.58;;;16.85;;
13244;SDS011;6689;53.400;12.486;2022-12-18T12:17:03;36.22;;;15.75;;
13244;SDS011;6689;53.400;12.486;2022-12-18T12:19:39;33.75;;;15.75;;
13244;SDS011;6689;53.400;12.486;2022-12-18T12:22:17;34.80;;;14.85;;
13244;SDS011;6689;53.400;12.486;2022-12-18T12:24:55;40.13;;;15.55;;
13244;SDS011;6689;53.400;12.486;2022-12-18T12:27:39;35.13;;;15.90;;
13244;SDS011;6689;53.400;12.486;2022-12-18T12:30:16;38.97;;;17.40;;
13244;SDS011;6689;53.400;12.486;2022-12-18T12:32:52;35.47;;;16.55;;
13244;SDS011;6689;53.400;12.486;2022-12-18T12:35:37;34.67;;;14.73;;
13244;SDS011;6689;53.400;12.486;2022-12-18T12:38:12;34.95;;;15.55;;
13244;SDS011;6689;53.400;12.486;2022-12-18T12:40:44;37.80;;;16.15;;
13244;SDS011;6689;53.400;12.486;2022-12-18T12:43:24;35.20;;;17.58;;
13244;SDS011;6689;53.400;12.486;2022-12-18T12:45:56;37.85;;;17.33;;
13244;SDS011;6689;53.400;12.486;2022-12-18T12:48:32;35.75;;;16.27;;
13244;SDS011;6689;53.400;12.486;2022-12-18T12:51:07;33.17;;;15.80;;
13244;SDS011;6689;53.400;12.486;2022-12-18T12:53:37;37.65;;;16.17;;
13244;SDS011;6689;53.400;12.486;2022-12-18T12:56:06;38.38;;;16.85;;
13244;SDS011;6689;53.400;12.486;2022-12-18T12:58:38;38.38;;;17.05;;
13244;SDS011;6689;53.400;12.486;2022-12-18T13:01:13;37.45;;;16.70;;
13244;SDS011;6689;53.400;12.486;2022-12-18T13:03:54;38.13;;;17.55;;
13244;SDS011;6689;53.400;12.486;2022-12-18T13:06:32;33.47;;;15.38;;
13244;SDS011;6689;53.400;12.486;2022-12-18T13:09:04;33.25;;;14.98;;
13244;SDS011;6689;53.400;12.486;2022-12-18T13:11:35;35.75;;;17.10;;
13244;SDS011;6689;53.400;12.486;2022-12-18T13:14:22;37.63;;;17.15;;
13244;SDS011;6689;53.400;12.486;2022-12-18T13:16:51;34.13;;;17.17;;
13244;SDS011;6689;53.400;12.486;2022-12-18T13:19:40;35.72;;;16.30;;
13244;SDS011;6689;53.400;12.486;2022-12-18T13:22:19;32.65;;;17.20;;
13244;SDS011;6689;53.400;12.486;2022-12-18T13:24:48;40.35;;;18.35;;
13244;SDS011;6689;53.400;12.486;2022-12-18T13:33:30;37.88;;;19.23;;
13244;SDS011;6689;53.400;12.486;2022-12-18T13:36:23;36.45;;;17.30;;
13244;SDS011;6689;53.400;12.486;2022-12-18T13:39:20;40.45;;;19.10;;
13244;SDS011;6689;53.400;12.486;2022-12-18T13:48:16;42.42;;;18.27;;
13244;SDS011;6689;53.400;12.486;2022-12-18T13:50:48;38.85;;;17.73;;
13244;SDS011;6689;53.400;12.486;2022-12-18T13:53:23;36.10;;;16.25;;
13244;SDS011;6689;53.400;12.486;2022-12-18T13:55:54;37.45;;;17.48;;
13244;SDS011;6689;53.400;12.486;2022-12-18T13:58:21;38.95;;;17.38;;
13244;SDS011;6689;53.400;12.486;2022-12-18T14:00:49;38.85;;;18.83;;
13244;SDS011;6689;53.400;12.486;2022-12-18T14:03:17;38.72;;;17.35;;
13244;SDS011;6689;53.400;12.486;2022-12-18T14:05:46;38.33;;;18.17;;
13244;SDS011;6689;53.400;12.486;2022-12-18T14:08:22;37.97;;;18.90;;
13244;SDS011;6689;53.400;12.486;2022-12-18T14:10:52;30.25;;;15.07;;
13244;SDS011;6689;53.400;12.486;2022-12-18T14:13:21;37.25;;;16.60;;
13244;SDS011;6689;53.400;12.486;2022-12-18T14:15:51;40.25;;;18.30;;
13244;SDS011;6689;53.400;12.486;2022-12-18T14:18:20;35.85;;;17.02;;
13244;SDS011;6689;53.400;12.486;2022-12-18T14:20:50;38.30;;;15.88;;
13244;SDS011;6689;53.400;12.486;2022-12-18T14:23:27;36.47;;;16.15;;
13244;SDS011;6689;53.400;12.486;2022-12-18T14:26:00;41.50;;;18.30;;
13244;SDS011;6689;53.400;12.486;2022-12-18T14:28:29;34.15;;;15.68;;
13244;SDS011;6689;53.400;12.486;2022-12-18T14:30:56;38.70;;;17.65;;
13244;SDS011;6689;53.400;12.486;2022-12-18T14:33:24;36.97;;;19.23;;
13244;SDS011;6689;53.400;12.486;2022-12-18T14:35:54;36.83;;;17.75;;
13244;SDS011;6689;53.400;12.486;2022-12-18T14:38:25;43.28;;;19.05;;
13244;SDS011;6689;53.400;12.486;2022-12-18T14:40:57;47.40;;;19.92;;
13244;SDS011;6689;53.400;12.486;2022-12-18T14:43:26;38.28;;;17.58;;
13244;SDS011;6689;53.400;12.486;2022-12-18T14:45:55;41.90;;;19.70;;
13244;SDS011;6689;53.400;12.486;2022-12-18T14:48:25;90.30;;;47.75;;
13244;SDS011;6689;53.400;12.486;2022-12-18T14:51:06;45.38;;;19.92;;
13244;SDS011;6689;53.400;12.486;2022-12-18T14:53:44;46.75;;;19.08;;
13244;SDS011;6689;53.400;12.486;2022-12-18T14:56:14;39.03;;;17.48;;
13244;SDS011;6689;53.400;12.486;2022-12-18T14:58:44;56.10;;;21.15;;
13244;SDS011;6689;53.400;12.486;2022-12-18T15:01:19;44.72;;;18.85;;
13244;SDS011;6689;53.400;12.486;2022-12-18T15:03:50;47.05;;;19.30;;
13244;SDS011;6689;53.400;12.486;2022-12-18T15:06:24;47.83;;;22.08;;